createdAt,value
2023-04-15T00:01:37.084Z,100101.06
2023-04-15T00:04:04.730Z,100098.72
2023-04-15T00:06:31.330Z,100094.34
2023-04-15T00:08:57.873Z,100098.59
2023-04-15T00:11:24.498Z,100092.34
2023-04-15T00:13:51.161Z,100095.47
2023-04-15T00:16:17.724Z,100087.41
2023-04-15T00:18:44.181Z,100087.84
2023-04-15T00:21:10.588Z,100085.69
2023-04-15T00:23:36.969Z,100088.69
2023-04-15T00:26:03.408Z,100093.41
2023-04-15T00:28:30.929Z,100093.22
2023-04-15T00:30:57.668Z,100094.50
2023-04-15T00:33:24.125Z,100086.91
2023-04-15T00:35:50.885Z,100087.03
2023-04-15T00:38:17.689Z,100087.03
2023-04-15T00:40:44.151Z,100095.84
2023-04-15T00:43:10.564Z,100094.13
2023-04-15T00:45:37.275Z,100090.44
2023-04-15T00:48:03.915Z,100088.19
2023-04-15T00:50:30.392Z,100086.66
2023-04-15T00:52:56.761Z,100085.06
2023-04-15T00:55:23.224Z,100090.16
2023-04-15T00:57:50.563Z,100089.16
2023-04-15T01:00:16.967Z,100092.09
2023-04-15T01:02:43.664Z,100095.31
2023-04-15T01:05:10.145Z,100093.78
2023-04-15T01:07:36.734Z,100091.38
2023-04-15T01:10:04.326Z,100089.88
2023-04-15T01:12:32.420Z,100087.25
2023-04-15T01:14:59.338Z,100084.56
2023-04-15T01:17:25.809Z,100087.25
2023-04-15T01:19:52.861Z,100085.47
2023-04-15T01:22:19.634Z,100080.69
2023-04-15T01:25:02.340Z,100084.38
2023-04-15T01:27:28.779Z,100085.84
2023-04-15T01:29:55.154Z,100079.66
2023-04-15T01:32:21.615Z,100081.28
2023-04-15T01:34:47.988Z,100084.47
2023-04-15T01:37:14.418Z,100097.34
2023-04-15T01:39:41.087Z,100099.31
2023-04-15T01:42:07.566Z,100091.28
2023-04-15T01:44:33.992Z,100103.81
2023-04-15T01:47:00.683Z,100099.16
2023-04-15T01:49:27.556Z,100095.75
2023-04-15T01:51:54.186Z,100095.34
2023-04-15T01:54:20.628Z,100093.97
2023-04-15T01:56:47.225Z,100092.56
2023-04-15T01:59:13.743Z,100091.78
2023-04-15T02:01:40.859Z,100102.00
2023-04-15T02:04:08.041Z,100094.38
2023-04-15T02:06:34.522Z,100099.09
2023-04-15T02:09:01.078Z,100105.94
2023-04-15T02:11:27.659Z,100108.53
2023-04-15T02:13:54.029Z,100098.00
2023-04-15T02:16:20.599Z,100101.69
2023-04-15T02:18:47.412Z,100109.94
2023-04-15T02:21:14.159Z,100100.41
2023-04-15T02:23:40.553Z,100104.81
2023-04-15T02:26:08.036Z,100105.97
2023-04-15T02:28:34.418Z,100105.63
2023-04-15T02:31:02.163Z,100113.16
2023-04-15T02:33:28.587Z,100123.00
2023-04-15T02:35:55.012Z,100114.00
2023-04-15T02:38:21.437Z,100122.44
2023-04-15T02:40:49.632Z,100118.91
2023-04-15T02:43:17.143Z,100124.28
2023-04-15T02:45:43.921Z,100129.19
2023-04-15T02:48:10.616Z,100126.63
2023-04-15T02:50:39.898Z,100136.66
2023-04-15T02:53:06.941Z,100136.38
2023-04-15T02:55:33.356Z,100141.94
2023-04-15T02:58:01.004Z,100140.94
2023-04-15T03:00:28.229Z,100139.88
2023-04-15T03:02:59.436Z,100150.56
2023-04-15T03:05:26.100Z,100162.53
2023-04-15T03:07:52.822Z,100157.28
2023-04-15T03:10:19.904Z,100157.22
2023-04-15T03:12:46.414Z,100161.72
2023-04-15T03:15:12.831Z,100165.47
2023-04-15T03:17:39.264Z,100164.19
2023-04-15T03:20:06.684Z,100161.09
2023-04-15T03:22:33.394Z,100166.34
2023-04-15T03:24:59.771Z,100161.09
2023-04-15T03:27:26.173Z,100156.22
2023-04-15T03:29:52.646Z,100159.28
2023-04-15T03:32:19.212Z,100160.19
2023-04-15T03:34:45.644Z,100164.56
2023-04-15T03:37:12.048Z,100165.97
2023-04-15T03:39:38.908Z,100169.56
2023-04-15T03:42:05.469Z,100160.84
2023-04-15T03:44:32.736Z,100169.94
2023-04-15T03:46:59.144Z,100161.88
2023-04-15T03:49:25.541Z,100172.16
2023-04-15T03:51:52.218Z,100170.09
2023-04-15T03:54:18.594Z,100165.31
2023-04-15T03:56:44.964Z,100170.84
2023-04-15T03:59:11.384Z,100162.78
2023-04-15T04:01:37.819Z,100170.84
2023-04-15T04:04:04.362Z,100166.88
2023-04-15T04:06:31.091Z,100171.66
2023-04-15T04:08:57.471Z,100179.97
2023-04-15T04:11:23.849Z,100173.41
2023-04-15T04:13:50.249Z,100175.88
2023-04-15T04:16:17.171Z,100170.09
2023-04-15T04:18:43.656Z,100172.66
2023-04-15T04:21:10.085Z,100179.19
2023-04-15T04:23:36.484Z,100186.75
2023-04-15T04:26:02.857Z,100179.59
2023-04-15T04:28:29.265Z,100179.34
2023-04-15T04:30:56.249Z,100180.63
2023-04-15T04:33:22.707Z,100182.91
2023-04-15T04:35:49.082Z,100188.03
2023-04-15T04:38:15.463Z,100188.31
2023-04-15T04:40:41.909Z,100190.91
2023-04-15T04:43:08.319Z,100203.22
2023-04-15T04:45:34.880Z,100195.50
2023-04-15T04:48:01.672Z,100205.38
2023-04-15T04:50:28.124Z,100202.19
2023-04-15T04:52:54.512Z,100196.41
2023-04-15T04:55:21.144Z,100206.16
2023-04-15T04:57:47.525Z,100209.59
2023-04-15T05:00:14.093Z,100214.50
2023-04-15T05:02:42.401Z,100215.66
2023-04-15T05:05:09.587Z,100213.88
2023-04-15T05:07:36.060Z,100209.09
2023-04-15T05:10:02.424Z,100219.66
2023-04-15T05:12:28.806Z,100226.63
2023-04-15T05:14:55.194Z,100238.66
2023-04-15T05:17:21.899Z,100229.16
2023-04-15T05:19:48.415Z,100233.53
2023-04-15T05:22:14.797Z,100232.25
2023-04-15T05:24:41.206Z,100232.25
2023-04-15T05:27:08.492Z,100228.16
2023-04-15T05:29:34.952Z,100239.06
2023-04-15T05:32:01.627Z,100239.75
2023-04-15T05:34:28.053Z,100248.84
2023-04-15T05:36:54.424Z,100245.63
2023-04-15T05:39:20.816Z,100258.22
2023-04-15T05:41:47.230Z,100248.31
2023-04-15T05:44:13.605Z,100256.28
2023-04-15T05:46:40.147Z,100257.53
2023-04-15T05:49:06.931Z,100260.84
2023-04-15T05:51:33.308Z,100264.84
2023-04-15T05:53:59.699Z,100278.88
2023-04-15T05:56:27.016Z,100281.72
2023-04-15T05:58:53.907Z,100272.63
2023-04-15T06:01:20.612Z,100274.81
2023-04-15T06:03:47.139Z,100279.69
2023-04-15T06:06:14.296Z,100283.31
2023-04-15T06:08:41.019Z,100285.22
2023-04-15T06:11:07.403Z,100290.94
2023-04-15T06:13:34.810Z,100296.00
2023-04-15T06:16:01.502Z,100295.84
2023-04-15T06:18:27.938Z,100296.25
2023-04-15T06:20:54.329Z,100292.59
2023-04-15T06:23:21.120Z,100299.13
2023-04-15T06:25:47.602Z,100303.06
2023-04-15T06:28:13.963Z,100297.81
2023-04-15T06:30:40.413Z,100302.09
2023-04-15T06:33:07.338Z,100301.69
2023-04-15T06:35:33.721Z,100307.31
2023-04-15T06:38:00.193Z,100308.19
2023-04-15T06:40:26.795Z,100305.00
2023-04-15T06:42:53.195Z,100315.31
2023-04-15T06:45:19.580Z,100308.59
2023-04-15T06:47:46.070Z,100316.13
2023-04-15T06:50:12.510Z,100317.69
2023-04-15T06:52:38.920Z,100309.66
2023-04-15T06:55:06.883Z,100311.31
2023-04-15T06:57:34.911Z,100306.81
2023-04-15T07:00:01.975Z,100315.78
2023-04-15T07:02:28.443Z,100317.78
2023-04-15T07:04:55.485Z,100310.22
2023-04-15T07:07:21.854Z,100307.50
2023-04-15T07:09:48.313Z,100307.94
2023-04-15T07:12:14.696Z,100305.13
2023-04-15T07:14:41.114Z,100304.81
2023-04-15T07:17:08.763Z,100309.75
2023-04-15T07:19:35.819Z,100318.38
2023-04-15T07:22:02.211Z,100312.66
2023-04-15T07:24:28.644Z,100313.34
2023-04-15T07:26:58.648Z,100316.25
2023-04-15T07:29:27.047Z,100303.03
2023-04-15T07:31:53.431Z,100307.50
2023-04-15T07:34:20.745Z,100309.28
2023-04-15T07:36:50.453Z,100313.44
2023-04-15T07:39:16.900Z,100311.31
2023-04-15T07:41:43.287Z,100323.09
2023-04-15T07:44:09.901Z,100318.25
2023-04-15T07:46:37.232Z,100320.50
2023-04-15T07:49:04.277Z,100323.75
2023-04-15T07:51:32.214Z,100334.75
2023-04-15T07:53:59.180Z,100329.69
2023-04-15T07:56:26.404Z,100330.50
2023-04-15T07:58:52.950Z,100333.88
2023-04-15T08:01:19.328Z,100332.16
2023-04-15T08:03:45.867Z,100323.56
2023-04-15T08:06:12.383Z,100330.94
2023-04-15T08:08:38.741Z,100333.53
2023-04-15T08:11:05.298Z,100331.50
2023-04-15T08:13:31.678Z,100340.41
2023-04-15T08:16:22.555Z,100342.88
2023-04-15T08:18:50.206Z,100347.22
2023-04-15T08:21:17.759Z,100334.34
2023-04-15T08:23:45.421Z,100333.84
2023-04-15T08:26:12.791Z,100340.59
2023-04-15T08:28:42.421Z,100345.63
2023-04-15T08:31:09.561Z,100335.56
2023-04-15T08:33:36.209Z,100345.66
2023-04-15T08:36:03.244Z,100343.84
2023-04-15T08:38:29.626Z,100344.88
2023-04-15T08:40:57.262Z,100348.78
2023-04-15T08:43:28.290Z,100349.25
2023-04-15T08:45:55.294Z,100353.97
2023-04-15T08:48:22.704Z,100359.59
2023-04-15T08:50:49.096Z,100360.72
2023-04-15T08:53:15.629Z,100352.59
2023-04-15T08:55:46.412Z,100359.81
2023-04-15T08:58:14.050Z,100363.19
2023-04-15T09:00:41.294Z,100361.50
2023-04-15T09:03:09.128Z,100367.44
2023-04-15T09:05:36.592Z,100373.88
2023-04-15T09:08:03.921Z,100381.38
2023-04-15T09:10:30.873Z,100380.25
2023-04-15T09:12:57.395Z,100380.56
2023-04-15T09:15:29.855Z,100378.47
2023-04-15T09:17:56.810Z,100383.06
2023-04-15T09:20:23.651Z,100387.66
2023-04-15T09:22:51.017Z,100390.13
2023-04-15T09:25:24.218Z,100396.31
2023-04-15T09:27:51.825Z,100401.13
2023-04-15T09:30:18.335Z,100399.13
2023-04-15T09:32:55.651Z,100396.88
2023-04-15T09:35:22.945Z,100395.41
2023-04-15T09:37:50.303Z,100399.31
2023-04-15T09:40:32.686Z,100402.59
2023-04-15T09:42:59.189Z,100403.00
2023-04-15T09:45:29.366Z,100399.13
2023-04-15T09:47:59.149Z,100409.66
2023-04-15T09:50:29.542Z,100410.00
2023-04-15T09:52:56.358Z,100409.44
2023-04-15T09:55:22.924Z,100413.06
2023-04-15T09:57:49.385Z,100407.06
2023-04-15T10:00:16.031Z,100416.50
2023-04-15T10:02:43.260Z,100420.66
2023-04-15T10:05:14.915Z,100428.53
2023-04-15T10:07:42.818Z,100429.13
2023-04-15T10:10:11.008Z,100429.00
2023-04-15T10:12:38.152Z,100430.78
2023-04-15T10:15:05.615Z,100431.38
2023-04-15T10:17:35.215Z,100425.38
2023-04-15T10:20:03.516Z,100428.94
2023-04-15T10:22:30.648Z,100428.00
2023-04-15T10:24:57.567Z,100431.59
2023-04-15T10:27:24.538Z,100433.44
2023-04-15T10:29:51.293Z,100444.72
2023-04-15T10:32:19.831Z,100448.41
2023-04-15T10:34:47.829Z,100448.88
2023-04-15T10:37:23.570Z,100449.88
2023-04-15T10:39:50.647Z,100452.38
2023-04-15T10:42:19.293Z,100459.09
2023-04-15T10:44:49.125Z,100446.63
2023-04-15T10:47:18.979Z,100452.72
2023-04-15T10:49:57.102Z,100455.84
2023-04-15T10:52:25.992Z,100456.88
2023-04-15T10:55:11.108Z,100457.31
2023-04-15T10:57:41.956Z,100458.66
2023-04-15T11:00:09.013Z,100450.22
2023-04-15T11:02:56.956Z,100460.47
2023-04-15T11:05:49.934Z,100461.56
2023-04-15T11:08:16.706Z,100469.47
2023-04-15T11:10:42.990Z,100475.06
2023-04-15T11:13:09.283Z,100465.59
2023-04-15T11:15:44.892Z,100462.25
2023-04-15T11:18:19.157Z,100467.63
2023-04-15T11:20:50.834Z,100474.38
2023-04-15T11:23:27.494Z,100471.56
2023-04-15T11:25:56.217Z,100475.50
2023-04-15T11:28:25.825Z,100484.59
2023-04-15T11:30:52.247Z,100482.94
2023-04-15T11:33:18.614Z,100488.31
2023-04-15T11:35:45.024Z,100485.06
2023-04-15T11:38:12.886Z,100484.13
2023-04-15T11:40:39.841Z,100486.91
2023-04-15T11:43:20.972Z,100492.75
2023-04-15T11:45:51.399Z,100496.69
2023-04-15T11:48:18.673Z,100492.59
2023-04-15T11:50:45.410Z,100495.16
2023-04-15T11:53:13.531Z,100505.16
2023-04-15T11:55:44.668Z,100500.78
2023-04-15T11:58:12.864Z,100504.50
2023-04-15T12:00:41.141Z,100503.94
2023-04-15T12:03:36.100Z,100514.63
2023-04-15T12:06:21.868Z,100512.16
2023-04-15T12:08:55.233Z,100509.31
2023-04-15T12:11:29.372Z,100513.94
2023-04-15T12:14:22.699Z,100521.81
2023-04-15T12:16:53.836Z,100519.84
2023-04-15T12:19:23.323Z,100518.16
2023-04-15T12:21:49.999Z,100517.50
2023-04-15T12:24:21.011Z,100535.53
2023-04-15T12:26:53.483Z,100526.19
2023-04-15T12:29:21.043Z,100535.53
2023-04-15T12:31:48.687Z,100536.97
2023-04-15T12:34:15.722Z,100539.56
2023-04-15T12:36:42.392Z,100541.94
2023-04-15T12:39:08.894Z,100552.50
2023-04-15T12:41:35.383Z,100555.88
2023-04-15T12:44:02.018Z,100561.81
2023-04-15T12:46:28.654Z,100562.97
2023-04-15T12:48:55.031Z,100570.25
2023-04-15T12:51:21.722Z,100566.22
2023-04-15T12:53:49.495Z,100562.97
2023-04-15T12:56:16.965Z,100570.59
2023-04-15T12:58:43.393Z,100571.03
2023-04-15T13:01:10.661Z,100564.66
2023-04-15T13:03:37.211Z,100569.22
2023-04-15T13:06:04.827Z,100579.47
2023-04-15T13:08:31.680Z,100580.25
2023-04-15T13:10:58.115Z,100579.34
2023-04-15T13:13:24.543Z,100580.03
2023-04-15T13:15:51.076Z,100585.00
2023-04-15T13:18:17.534Z,100586.91
2023-04-15T13:20:43.916Z,100589.38
2023-04-15T13:23:10.513Z,100591.53
2023-04-15T13:25:36.910Z,100583.50
2023-04-15T13:28:03.347Z,100595.22
2023-04-15T13:30:29.727Z,100591.31
2023-04-15T13:32:56.124Z,100588.13
2023-04-15T13:35:22.525Z,100591.72
2023-04-15T13:37:48.899Z,100599.38
2023-04-15T13:40:15.462Z,100603.41
2023-04-15T13:42:42.688Z,100599.81
2023-04-15T13:45:09.722Z,100608.38
2023-04-15T13:47:36.476Z,100611.06
2023-04-15T13:50:02.935Z,100611.97
2023-04-15T13:52:30.466Z,100616.03
2023-04-15T13:55:07.483Z,100619.38
2023-04-15T13:57:43.285Z,100618.91
2023-04-15T14:00:10.452Z,100618.91
2023-04-15T14:02:36.971Z,100634.22
2023-04-15T14:05:03.598Z,100639.03
2023-04-15T14:07:30.794Z,100631.56
2023-04-15T14:09:57.236Z,100639.16
2023-04-15T14:12:23.642Z,100642.13
2023-04-15T14:14:50.022Z,100656.59
2023-04-15T14:17:16.426Z,100650.84
2023-04-15T14:19:42.857Z,100646.47
2023-04-15T14:22:09.234Z,100661.94
2023-04-15T14:24:35.701Z,100657.56
2023-04-15T14:27:02.174Z,100656.91
2023-04-15T14:29:28.557Z,100662.41
2023-04-15T14:32:04.127Z,100661.81
2023-04-15T14:34:37.603Z,100665.63
2023-04-15T14:37:04.080Z,100665.03
2023-04-15T14:39:31.080Z,100662.81
2023-04-15T14:41:57.568Z,100661.81
2023-04-15T14:44:24.109Z,100677.09
2023-04-15T14:46:51.674Z,100680.38
2023-04-15T14:49:18.110Z,100686.09
2023-04-15T14:51:44.597Z,100685.91
2023-04-15T14:54:11.001Z,100685.34
2023-04-15T14:56:37.388Z,100692.28
2023-04-15T14:59:03.872Z,100701.41
2023-04-15T15:01:30.439Z,100698.34
2023-04-15T15:03:57.137Z,100705.84
2023-04-15T15:06:23.537Z,100699.91
2023-04-15T15:08:49.939Z,100709.41
2023-04-15T15:11:16.943Z,100704.13
2023-04-15T15:13:43.352Z,100703.06
2023-04-15T15:16:10.994Z,100717.47
2023-04-15T15:18:38.952Z,100716.19
2023-04-15T15:21:05.438Z,100722.38
2023-04-15T15:23:31.983Z,100725.97
2023-04-15T15:25:58.970Z,100729.38
2023-04-15T15:28:25.549Z,100736.84
2023-04-15T15:30:51.962Z,100738.22
2023-04-15T15:33:18.359Z,100736.28
2023-04-15T15:35:44.766Z,100741.44
2023-04-15T15:38:11.720Z,100745.09
2023-04-15T15:40:38.085Z,100753.84
2023-04-15T15:43:04.733Z,100757.47
2023-04-15T15:45:31.366Z,100762.97
2023-04-15T15:47:58.768Z,100775.03
2023-04-15T15:50:25.219Z,100768.81
2023-04-15T15:52:51.696Z,100772.94
2023-04-15T15:55:18.116Z,100785.69
2023-04-15T15:57:44.553Z,100784.34
2023-04-15T16:00:12.702Z,100794.63
2023-04-15T16:03:05.241Z,100794.53
2023-04-15T16:05:25.974Z,100799.59
2023-04-15T16:07:52.399Z,100804.16
2023-04-15T16:10:18.802Z,100811.44
2023-04-15T16:12:45.358Z,100814.94
2023-04-15T16:15:12.288Z,100813.25
2023-04-15T16:17:38.789Z,100815.03
2023-04-15T16:20:06.128Z,100811.66
2023-04-15T16:22:34.212Z,100814.59
2023-04-15T16:25:01.192Z,100821.75
2023-04-15T16:27:27.946Z,100816.50
2023-04-15T16:29:54.337Z,100826.44
2023-04-15T16:32:20.837Z,100826.03
2023-04-15T16:34:47.382Z,100827.97
2023-04-15T16:37:13.832Z,100831.03
2023-04-15T16:39:40.618Z,100840.38
2023-04-15T16:42:07.365Z,100832.78
2023-04-15T16:44:33.896Z,100832.88
2023-04-15T16:47:02.189Z,100839.06
2023-04-15T16:49:29.427Z,100847.63
2023-04-15T16:51:55.869Z,100842.31
2023-04-15T16:54:22.253Z,100851.34
2023-04-15T16:56:48.664Z,100858.69
2023-04-15T16:59:15.041Z,100857.00
2023-04-15T17:01:41.588Z,100855.84
2023-04-15T17:04:08.125Z,100864.63
2023-04-15T17:06:34.601Z,100867.72
2023-04-15T17:09:01.006Z,100870.03
2023-04-15T17:11:27.993Z,100867.72
2023-04-15T17:13:54.401Z,100866.56
2023-04-15T17:16:20.870Z,100876.53
2023-04-15T17:18:47.427Z,100881.91
2023-04-15T17:21:16.034Z,100882.03
2023-04-15T17:23:42.456Z,100890.66
2023-04-15T17:26:08.854Z,100886.56
2023-04-15T17:28:35.259Z,100885.16
2023-04-15T17:31:01.696Z,100892.50
2023-04-15T17:34:00.644Z,100893.78
2023-04-15T17:36:14.668Z,100900.50
2023-04-15T17:38:41.038Z,100901.53
2023-04-15T17:41:07.810Z,100900.38
2023-04-15T17:43:34.230Z,100899.75
2023-04-15T17:46:00.768Z,100910.31
2023-04-15T17:48:27.413Z,100907.09
2023-04-15T17:50:53.889Z,100913.50
2023-04-15T17:53:20.295Z,100926.97
2023-04-15T17:55:46.665Z,100925.78
2023-04-15T17:58:13.067Z,100920.00
2023-04-15T18:00:39.441Z,100936.22
2023-04-15T18:03:06.045Z,100938.94
2023-04-15T18:05:32.488Z,100938.63
2023-04-15T18:07:58.931Z,100937.91
2023-04-15T18:10:25.476Z,100940.75
2023-04-15T18:12:51.879Z,100945.22
2023-04-15T18:15:18.691Z,100947.06
2023-04-15T18:17:45.195Z,100951.06
2023-04-15T18:20:12.641Z,100956.69
2023-04-15T18:22:39.024Z,100965.06
2023-04-15T18:25:06.038Z,100960.81
2023-04-15T18:27:33.582Z,100966.19
2023-04-15T18:30:00.073Z,100968.94
2023-04-15T18:32:31.185Z,100979.25
2023-04-15T18:34:58.201Z,100981.97
2023-04-15T18:37:24.645Z,100976.31
2023-04-15T18:39:51.355Z,100995.66
2023-04-15T18:42:17.778Z,100992.56
2023-04-15T18:44:44.165Z,100988.22
2023-04-15T18:47:10.672Z,100996.69
2023-04-15T18:49:37.034Z,101001.53
2023-04-15T18:52:04.030Z,101001.84
2023-04-15T18:54:30.603Z,101004.16
2023-04-15T18:56:57.206Z,101013.81
2023-04-15T18:59:29.280Z,101006.50
2023-04-15T19:01:57.557Z,101012.00
2023-04-15T19:04:24.041Z,101021.16
2023-04-15T19:06:50.614Z,101016.94
2023-04-15T19:09:17.206Z,101020.88
2023-04-15T19:11:43.914Z,101022.06
2023-04-15T19:14:10.763Z,101018.44
2023-04-15T19:16:37.258Z,101024.09
2023-04-15T19:19:03.968Z,101020.84
2023-04-15T19:21:31.828Z,101028.38
2023-04-15T19:23:58.313Z,101030.34
2023-04-15T19:26:24.681Z,101033.63
2023-04-15T19:28:53.074Z,101035.06
2023-04-15T19:31:20.219Z,101036.63
2023-04-15T19:33:46.872Z,101040.91
2023-04-15T19:36:13.292Z,101036.81
2023-04-15T19:38:39.663Z,101026.31
2023-04-15T19:41:06.143Z,101033.63
2023-04-15T19:43:32.551Z,101040.03
2023-04-15T19:45:58.959Z,101039.16
2023-04-15T19:48:25.773Z,101054.00
2023-04-15T19:50:52.145Z,101054.56
2023-04-15T19:53:18.538Z,101057.41
2023-04-15T19:55:44.952Z,101056.16
2023-04-15T19:58:11.512Z,101063.13
2023-04-15T20:00:38.109Z,101056.88
2023-04-15T20:03:04.978Z,101063.75
2023-04-15T20:05:31.572Z,101070.09
2023-04-15T20:07:59.815Z,101068.16
2023-04-15T20:10:26.407Z,101065.69
2023-04-15T20:12:53.494Z,101058.72
2023-04-15T20:15:23.534Z,101068.50
2023-04-15T20:17:50.228Z,101072.38
2023-04-15T20:20:16.791Z,101072.81
2023-04-15T20:22:43.242Z,101074.44
2023-04-15T20:25:09.784Z,101079.22
2023-04-15T20:27:36.213Z,101077.53
2023-04-15T20:30:04.690Z,101076.75
2023-04-15T20:32:35.188Z,101080.34
2023-04-15T20:35:02.650Z,101077.50
2023-04-15T20:37:30.396Z,101077.00
2023-04-15T20:39:56.769Z,101082.53
2023-04-15T20:42:23.309Z,101070.97
2023-04-15T20:44:49.674Z,101079.22
2023-04-15T20:47:16.362Z,101086.59
2023-04-15T20:49:42.833Z,101088.28
2023-04-15T20:52:09.386Z,101096.28
2023-04-15T20:54:35.841Z,101094.72
2023-04-15T20:57:02.475Z,101102.00
2023-04-15T20:59:28.902Z,101096.72
2023-04-15T21:01:57.026Z,101102.38
2023-04-15T21:04:24.375Z,101099.75
2023-04-15T21:06:52.015Z,101101.88
2023-04-15T21:09:18.762Z,101102.63
2023-04-15T21:12:00.333Z,101103.56
2023-04-15T21:14:27.762Z,101107.34
2023-04-15T21:16:54.205Z,101106.41
2023-04-15T21:19:20.611Z,101105.03
2023-04-15T21:21:47.011Z,101107.91
2023-04-15T21:24:13.394Z,101116.50
2023-04-15T21:26:39.761Z,101131.25
2023-04-15T21:29:08.766Z,101121.94
2023-04-15T21:31:37.035Z,101123.13
2023-04-15T21:34:03.614Z,101119.19
2023-04-15T21:36:30.165Z,101120.16
2023-04-15T21:38:56.569Z,101121.44
2023-04-15T21:41:22.950Z,101123.22
2023-04-15T21:43:49.358Z,101131.56
2023-04-15T21:46:22.418Z,101140.69
2023-04-15T21:48:52.262Z,101138.66
2023-04-15T21:51:18.695Z,101139.28
2023-04-15T21:53:45.250Z,101140.31
2023-04-15T21:56:11.919Z,101151.63
2023-04-15T21:58:38.348Z,101149.03
2023-04-15T22:01:04.942Z,101154.81
2023-04-15T22:03:33.819Z,101148.38
2023-04-15T22:06:01.762Z,101150.38
2023-04-15T22:08:28.168Z,101160.28
2023-04-15T22:10:54.986Z,101150.13
2023-04-15T22:13:21.360Z,101153.38
2023-04-15T22:15:48.119Z,101152.06
2023-04-15T22:18:14.580Z,101156.84
2023-04-15T22:20:41.008Z,101160.06
2023-04-15T22:23:10.300Z,101165.75
2023-04-15T22:25:37.247Z,101166.00
2023-04-15T22:28:06.822Z,101161.31
2023-04-15T22:30:37.179Z,101168.13
2023-04-15T22:33:03.686Z,101171.72
2023-04-15T22:35:30.057Z,101170.75
2023-04-15T22:37:56.447Z,101175.44
2023-04-15T22:40:22.809Z,101173.56
2023-04-15T22:42:49.203Z,101164.22
2023-04-15T22:45:15.893Z,101171.25
2023-04-15T22:47:42.315Z,101168.66
2023-04-15T22:50:09.004Z,101186.47
2023-04-15T22:52:35.491Z,101188.84
2023-04-15T22:55:01.859Z,101178.97
2023-04-15T22:57:28.408Z,101177.41
2023-04-15T22:59:54.837Z,101181.09
2023-04-15T23:02:21.486Z,101190.31
2023-04-15T23:04:48.131Z,101194.22
2023-04-15T23:07:14.616Z,101200.16
2023-04-15T23:09:40.981Z,101204.75
2023-04-15T23:12:07.435Z,101204.69
2023-04-15T23:14:33.824Z,101214.28
2023-04-15T23:17:00.193Z,101216.38
2023-04-15T23:19:26.569Z,101218.41
2023-04-15T23:21:53.926Z,101213.97
2023-04-15T23:24:20.533Z,101222.19
2023-04-15T23:26:46.927Z,101227.53
2023-04-15T23:29:13.357Z,101225.41
2023-04-15T23:31:41.653Z,101221.22
2023-04-15T23:34:08.155Z,101231.66
2023-04-15T23:36:34.519Z,101217.78
2023-04-15T23:39:00.896Z,101227.75
2023-04-15T23:41:27.275Z,101225.03
2023-04-15T23:43:53.648Z,101221.84
2023-04-15T23:46:20.152Z,101225.16
2023-04-15T23:48:47.797Z,101225.56
2023-04-15T23:51:14.191Z,101223.97
2023-04-15T23:53:40.694Z,101227.34
2023-04-15T23:56:07.370Z,101224.69
2023-04-15T23:58:34.687Z,101228.66
